ESGV weather

Varberg Getterön airfield
Varberg, Hallands län, Sweden

Public forecast

Using degrees Celsius for public forecast. Weather courtesy of forecast.io.

METAR (pilot weather report)

Closest report is Gothenburg-Landvetter Airport, 32.4 nm (59.9 km) N. Retrieved 2019/05/27 12:20 UTC (12 minutes ago):

ESGG 271220Z 22008KT 9999 FEW008 BKN019 09/07 Q1000

TAF (pilot weather forecast)

Closest forecast is Gothenburg-Landvetter Airport, 32.4 nm (59.9 km) N. Retrieved 2019/05/27 12:33 UTC (0 seconds ago):

TAF ESGG 271130Z 2712/2812 24010KT 9999 SCT006 BKN015 PROB40 2712/2715 BKN010 TEMPO 2715/2802 SHRA BKN015CB PROB40 2722/2804 4000 BR BKN010